sensor_id;sensor_type;location;lat;lon;timestamp;P1;durP1;ratioP1;P2;durP2;ratioP2
48875;SDS011;34689;51.644;5.618;2022-12-20T00:00:45;2.25;;;0.68;;
48875;SDS011;34689;51.644;5.618;2022-12-20T00:03:11;2.00;;;0.85;;
48875;SDS011;34689;51.644;5.618;2022-12-20T00:05:37;0.80;;;0.45;;
48875;SDS011;34689;51.644;5.618;2022-12-20T00:08:04;1.42;;;1.05;;
48875;SDS011;34689;51.644;5.618;2022-12-20T00:10:30;0.82;;;0.60;;
48875;SDS011;34689;51.644;5.618;2022-12-20T00:12:59;1.55;;;0.93;;
48875;SDS011;34689;51.644;5.618;2022-12-20T00:15:27;1.60;;;0.95;;
48875;SDS011;34689;51.644;5.618;2022-12-20T00:17:55;2.13;;;1.08;;
48875;SDS011;34689;51.644;5.618;2022-12-20T00:20:21;1.42;;;0.85;;
48875;SDS011;34689;51.644;5.618;2022-12-20T00:22:47;1.67;;;0.90;;
48875;SDS011;34689;51.644;5.618;2022-12-20T00:25:12;1.38;;;1.00;;
48875;SDS011;34689;51.644;5.618;2022-12-20T00:27:38;2.53;;;1.00;;
48875;SDS011;34689;51.644;5.618;2022-12-20T00:30:04;1.33;;;0.80;;
48875;SDS011;34689;51.644;5.618;2022-12-20T00:32:30;1.60;;;0.88;;
48875;SDS011;34689;51.644;5.618;2022-12-20T00:34:56;1.40;;;1.00;;
48875;SDS011;34689;51.644;5.618;2022-12-20T00:37:21;1.23;;;0.70;;
48875;SDS011;34689;51.644;5.618;2022-12-20T00:39:47;1.42;;;0.95;;
48875;SDS011;34689;51.644;5.618;2022-12-20T00:42:13;1.80;;;0.82;;
48875;SDS011;34689;51.644;5.618;2022-12-20T00:44:39;0.80;;;0.60;;
48875;SDS011;34689;51.644;5.618;2022-12-20T00:47:05;0.90;;;0.70;;
48875;SDS011;34689;51.644;5.618;2022-12-20T00:49:31;0.90;;;0.52;;
48875;SDS011;34689;51.644;5.618;2022-12-20T00:51:57;1.25;;;0.82;;
48875;SDS011;34689;51.644;5.618;2022-12-20T00:54:22;1.63;;;0.80;;
48875;SDS011;34689;51.644;5.618;2022-12-20T00:56:48;2.42;;;1.10;;
48875;SDS011;34689;51.644;5.618;2022-12-20T00:59:14;1.20;;;0.70;;
48875;SDS011;34689;51.644;5.618;2022-12-20T01:01:39;1.45;;;0.77;;
48875;SDS011;34689;51.644;5.618;2022-12-20T01:04:05;1.08;;;0.60;;
48875;SDS011;34689;51.644;5.618;2022-12-20T01:06:31;1.35;;;0.82;;
48875;SDS011;34689;51.644;5.618;2022-12-20T01:08:57;4.60;;;1.08;;
48875;SDS011;34689;51.644;5.618;2022-12-20T01:11:25;1.58;;;1.08;;
48875;SDS011;34689;51.644;5.618;2022-12-20T01:13:53;1.25;;;0.80;;
48875;SDS011;34689;51.644;5.618;2022-12-20T01:16:22;2.05;;;0.68;;
48875;SDS011;34689;51.644;5.618;2022-12-20T01:18:49;1.33;;;0.88;;
48875;SDS011;34689;51.644;5.618;2022-12-20T01:21:16;1.50;;;0.98;;
48875;SDS011;34689;51.644;5.618;2022-12-20T01:23:43;2.53;;;0.85;;
48875;SDS011;34689;51.644;5.618;2022-12-20T01:26:11;2.58;;;1.20;;
48875;SDS011;34689;51.644;5.618;2022-12-20T01:28:39;1.67;;;0.88;;
48875;SDS011;34689;51.644;5.618;2022-12-20T01:31:07;1.38;;;0.85;;
48875;SDS011;34689;51.644;5.618;2022-12-20T01:33:34;1.83;;;0.50;;
48875;SDS011;34689;51.644;5.618;2022-12-20T01:36:01;1.20;;;0.70;;
48875;SDS011;34689;51.644;5.618;2022-12-20T01:38:30;0.65;;;0.57;;
48875;SDS011;34689;51.644;5.618;2022-12-20T01:40:57;1.40;;;0.70;;
48875;SDS011;34689;51.644;5.618;2022-12-20T01:43:23;1.52;;;1.05;;
48875;SDS011;34689;51.644;5.618;2022-12-20T01:45:50;0.90;;;0.70;;
48875;SDS011;34689;51.644;5.618;2022-12-20T01:48:21;4.15;;;1.23;;
48875;SDS011;34689;51.644;5.618;2022-12-20T01:53:15;5.22;;;1.13;;
48875;SDS011;34689;51.644;5.618;2022-12-20T01:55:45;1.70;;;1.02;;
48875;SDS011;34689;51.644;5.618;2022-12-20T01:58:12;2.47;;;1.38;;
48875;SDS011;34689;51.644;5.618;2022-12-20T02:00:40;1.00;;;0.75;;
48875;SDS011;34689;51.644;5.618;2022-12-20T02:03:06;2.95;;;0.88;;
48875;SDS011;34689;51.644;5.618;2022-12-20T02:05:36;2.95;;;1.05;;
48875;SDS011;34689;51.644;5.618;2022-12-20T02:08:03;2.00;;;1.38;;
48875;SDS011;34689;51.644;5.618;2022-12-20T02:13:41;1.70;;;1.15;;
48875;SDS011;34689;51.644;5.618;2022-12-20T02:16:24;1.50;;;0.77;;
48875;SDS011;34689;51.644;5.618;2022-12-20T02:21:30;1.98;;;0.80;;
48875;SDS011;34689;51.644;5.618;2022-12-20T02:26:35;1.48;;;1.05;;
48875;SDS011;34689;51.644;5.618;2022-12-20T02:32:11;1.80;;;1.10;;
48875;SDS011;34689;51.644;5.618;2022-12-20T02:34:50;2.50;;;0.93;;
48875;SDS011;34689;51.644;5.618;2022-12-20T02:37:16;1.85;;;1.10;;
48875;SDS011;34689;51.644;5.618;2022-12-20T02:39:42;1.75;;;1.08;;
48875;SDS011;34689;51.644;5.618;2022-12-20T02:42:10;1.33;;;1.10;;
48875;SDS011;34689;51.644;5.618;2022-12-20T02:44:43;2.25;;;1.05;;
48875;SDS011;34689;51.644;5.618;2022-12-20T02:50:30;1.52;;;0.98;;
48875;SDS011;34689;51.644;5.618;2022-12-20T02:53:08;1.67;;;0.98;;
48875;SDS011;34689;51.644;5.618;2022-12-20T02:55:44;2.38;;;1.10;;
48875;SDS011;34689;51.644;5.618;2022-12-20T02:58:26;1.67;;;0.95;;
48875;SDS011;34689;51.644;5.618;2022-12-20T03:01:03;1.65;;;0.98;;
48875;SDS011;34689;51.644;5.618;2022-12-20T03:03:32;2.15;;;1.15;;
48875;SDS011;34689;51.644;5.618;2022-12-20T03:06:00;1.63;;;1.20;;
48875;SDS011;34689;51.644;5.618;2022-12-20T03:08:26;3.10;;;1.38;;
48875;SDS011;34689;51.644;5.618;2022-12-20T03:10:53;3.75;;;0.90;;
48875;SDS011;34689;51.644;5.618;2022-12-20T03:13:19;1.80;;;1.05;;
48875;SDS011;34689;51.644;5.618;2022-12-20T03:15:46;1.70;;;1.02;;
48875;SDS011;34689;51.644;5.618;2022-12-20T03:18:12;1.58;;;0.95;;
48875;SDS011;34689;51.644;5.618;2022-12-20T03:20:37;2.22;;;0.95;;
48875;SDS011;34689;51.644;5.618;2022-12-20T03:23:04;3.17;;;1.40;;
48875;SDS011;34689;51.644;5.618;2022-12-20T03:25:30;3.33;;;1.17;;
48875;SDS011;34689;51.644;5.618;2022-12-20T03:27:56;3.03;;;1.25;;
48875;SDS011;34689;51.644;5.618;2022-12-20T03:30:21;1.98;;;1.00;;
48875;SDS011;34689;51.644;5.618;2022-12-20T03:32:47;2.53;;;0.95;;
48875;SDS011;34689;51.644;5.618;2022-12-20T03:35:13;2.50;;;0.95;;
48875;SDS011;34689;51.644;5.618;2022-12-20T03:37:39;1.80;;;0.85;;
48875;SDS011;34689;51.644;5.618;2022-12-20T03:40:05;1.52;;;1.02;;
48875;SDS011;34689;51.644;5.618;2022-12-20T03:42:31;1.20;;;0.85;;
48875;SDS011;34689;51.644;5.618;2022-12-20T03:44:57;2.90;;;1.33;;
48875;SDS011;34689;51.644;5.618;2022-12-20T03:47:23;3.47;;;0.60;;
48875;SDS011;34689;51.644;5.618;2022-12-20T03:49:48;1.83;;;0.82;;
48875;SDS011;34689;51.644;5.618;2022-12-20T03:52:16;1.20;;;0.85;;
48875;SDS011;34689;51.644;5.618;2022-12-20T03:54:42;1.20;;;0.80;;
48875;SDS011;34689;51.644;5.618;2022-12-20T03:57:07;2.00;;;0.75;;
48875;SDS011;34689;51.644;5.618;2022-12-20T03:59:33;1.48;;;0.90;;
48875;SDS011;34689;51.644;5.618;2022-12-20T04:01:59;1.02;;;0.65;;
48875;SDS011;34689;51.644;5.618;2022-12-20T04:04:26;2.28;;;0.50;;
48875;SDS011;34689;51.644;5.618;2022-12-20T04:06:51;3.10;;;1.92;;
48875;SDS011;34689;51.644;5.618;2022-12-20T04:09:17;2.17;;;0.73;;
48875;SDS011;34689;51.644;5.618;2022-12-20T04:11:43;1.77;;;0.80;;
48875;SDS011;34689;51.644;5.618;2022-12-20T04:14:08;1.48;;;0.98;;
48875;SDS011;34689;51.644;5.618;2022-12-20T04:16:34;1.33;;;0.88;;
48875;SDS011;34689;51.644;5.618;2022-12-20T04:19:00;1.13;;;1.00;;
48875;SDS011;34689;51.644;5.618;2022-12-20T04:21:27;1.48;;;1.33;;
48875;SDS011;34689;51.644;5.618;2022-12-20T04:23:55;2.17;;;0.80;;
48875;SDS011;34689;51.644;5.618;2022-12-20T04:26:21;3.08;;;0.82;;
48875;SDS011;34689;51.644;5.618;2022-12-20T04:28:47;1.40;;;0.90;;
48875;SDS011;34689;51.644;5.618;2022-12-20T04:31:13;2.67;;;1.02;;
48875;SDS011;34689;51.644;5.618;2022-12-20T04:33:38;2.17;;;0.75;;
48875;SDS011;34689;51.644;5.618;2022-12-20T04:36:04;0.75;;;0.60;;
48875;SDS011;34689;51.644;5.618;2022-12-20T04:38:30;0.88;;;0.57;;
48875;SDS011;34689;51.644;5.618;2022-12-20T04:40:57;1.58;;;1.20;;
48875;SDS011;34689;51.644;5.618;2022-12-20T04:43:23;1.65;;;0.90;;
48875;SDS011;34689;51.644;5.618;2022-12-20T04:45:50;3.85;;;1.00;;
48875;SDS011;34689;51.644;5.618;2022-12-20T04:48:23;1.67;;;0.90;;
48875;SDS011;34689;51.644;5.618;2022-12-20T04:50:54;0.75;;;0.68;;
48875;SDS011;34689;51.644;5.618;2022-12-20T04:53:20;1.33;;;0.77;;
48875;SDS011;34689;51.644;5.618;2022-12-20T04:56:05;2.00;;;0.70;;
48875;SDS011;34689;51.644;5.618;2022-12-20T04:58:31;1.05;;;0.80;;
48875;SDS011;34689;51.644;5.618;2022-12-20T05:00:57;0.95;;;0.50;;
48875;SDS011;34689;51.644;5.618;2022-12-20T05:03:23;2.65;;;0.70;;
48875;SDS011;34689;51.644;5.618;2022-12-20T05:05:50;1.48;;;0.93;;
48875;SDS011;34689;51.644;5.618;2022-12-20T05:08:15;1.23;;;0.60;;
48875;SDS011;34689;51.644;5.618;2022-12-20T05:10:42;1.10;;;0.68;;
48875;SDS011;34689;51.644;5.618;2022-12-20T05:13:08;1.38;;;0.63;;
48875;SDS011;34689;51.644;5.618;2022-12-20T05:15:33;1.42;;;0.90;;
48875;SDS011;34689;51.644;5.618;2022-12-20T05:17:59;2.67;;;0.88;;
48875;SDS011;34689;51.644;5.618;2022-12-20T05:20:25;1.80;;;0.90;;
48875;SDS011;34689;51.644;5.618;2022-12-20T05:22:51;1.88;;;0.98;;
48875;SDS011;34689;51.644;5.618;2022-12-20T05:25:37;1.15;;;0.60;;
48875;SDS011;34689;51.644;5.618;2022-12-20T05:28:22;2.22;;;0.90;;
48875;SDS011;34689;51.644;5.618;2022-12-20T05:30:48;1.10;;;0.77;;
48875;SDS011;34689;51.644;5.618;2022-12-20T05:33:16;3.20;;;0.90;;
48875;SDS011;34689;51.644;5.618;2022-12-20T05:35:42;1.30;;;0.85;;
48875;SDS011;34689;51.644;5.618;2022-12-20T05:38:08;2.15;;;0.60;;
48875;SDS011;34689;51.644;5.618;2022-12-20T05:40:33;4.93;;;1.20;;
48875;SDS011;34689;51.644;5.618;2022-12-20T05:42:59;0.90;;;0.70;;
48875;SDS011;34689;51.644;5.618;2022-12-20T05:45:25;1.70;;;0.70;;
48875;SDS011;34689;51.644;5.618;2022-12-20T05:47:51;0.73;;;0.60;;
48875;SDS011;34689;51.644;5.618;2022-12-20T05:50:17;0.90;;;0.60;;
48875;SDS011;34689;51.644;5.618;2022-12-20T05:52:42;2.25;;;0.93;;
48875;SDS011;34689;51.644;5.618;2022-12-20T05:55:08;1.17;;;0.70;;
48875;SDS011;34689;51.644;5.618;2022-12-20T05:57:34;1.58;;;0.75;;
48875;SDS011;34689;51.644;5.618;2022-12-20T06:00:00;1.30;;;0.80;;
48875;SDS011;34689;51.644;5.618;2022-12-20T06:02:26;0.90;;;0.60;;
48875;SDS011;34689;51.644;5.618;2022-12-20T06:04:52;0.73;;;0.52;;
48875;SDS011;34689;51.644;5.618;2022-12-20T06:07:18;1.02;;;0.50;;
48875;SDS011;34689;51.644;5.618;2022-12-20T06:09:43;1.77;;;0.73;;
48875;SDS011;34689;51.644;5.618;2022-12-20T06:12:09;1.85;;;0.75;;
48875;SDS011;34689;51.644;5.618;2022-12-20T06:14:34;1.35;;;0.80;;
48875;SDS011;34689;51.644;5.618;2022-12-20T06:17:00;2.13;;;0.70;;
48875;SDS011;34689;51.644;5.618;2022-12-20T06:19:26;7.07;;;2.08;;
48875;SDS011;34689;51.644;5.618;2022-12-20T06:21:52;1.55;;;0.93;;
48875;SDS011;34689;51.644;5.618;2022-12-20T06:24:18;1.73;;;1.02;;
48875;SDS011;34689;51.644;5.618;2022-12-20T06:26:43;1.40;;;0.90;;
48875;SDS011;34689;51.644;5.618;2022-12-20T06:29:09;3.22;;;0.75;;
48875;SDS011;34689;51.644;5.618;2022-12-20T06:31:38;1.42;;;0.95;;
48875;SDS011;34689;51.644;5.618;2022-12-20T06:34:04;1.08;;;0.52;;
48875;SDS011;34689;51.644;5.618;2022-12-20T06:36:31;1.15;;;0.88;;
48875;SDS011;34689;51.644;5.618;2022-12-20T06:38:56;1.20;;;0.77;;
48875;SDS011;34689;51.644;5.618;2022-12-20T06:41:24;1.38;;;0.93;;
48875;SDS011;34689;51.644;5.618;2022-12-20T06:43:50;1.10;;;0.60;;
48875;SDS011;34689;51.644;5.618;2022-12-20T06:46:16;1.13;;;0.75;;
48875;SDS011;34689;51.644;5.618;2022-12-20T06:48:41;1.63;;;0.93;;
48875;SDS011;34689;51.644;5.618;2022-12-20T06:51:10;1.50;;;0.77;;
48875;SDS011;34689;51.644;5.618;2022-12-20T06:53:35;1.48;;;0.95;;
48875;SDS011;34689;51.644;5.618;2022-12-20T06:56:01;2.58;;;0.80;;
48875;SDS011;34689;51.644;5.618;2022-12-20T06:58:27;1.25;;;0.65;;
48875;SDS011;34689;51.644;5.618;2022-12-20T07:00:53;0.70;;;0.50;;
48875;SDS011;34689;51.644;5.618;2022-12-20T07:03:18;1.42;;;0.68;;
48875;SDS011;34689;51.644;5.618;2022-12-20T07:05:45;1.13;;;0.63;;
48875;SDS011;34689;51.644;5.618;2022-12-20T07:08:17;2.28;;;0.98;;
48875;SDS011;34689;51.644;5.618;2022-12-20T07:10:43;1.60;;;1.05;;
48875;SDS011;34689;51.644;5.618;2022-12-20T07:13:09;0.85;;;0.50;;
48875;SDS011;34689;51.644;5.618;2022-12-20T07:15:34;2.72;;;0.60;;
48875;SDS011;34689;51.644;5.618;2022-12-20T07:18:00;0.88;;;0.60;;
48875;SDS011;34689;51.644;5.618;2022-12-20T07:20:27;4.03;;;0.95;;
48875;SDS011;34689;51.644;5.618;2022-12-20T07:22:53;2.13;;;0.88;;
48875;SDS011;34689;51.644;5.618;2022-12-20T07:25:18;2.00;;;0.98;;
48875;SDS011;34689;51.644;5.618;2022-12-20T07:27:48;3.40;;;1.20;;
48875;SDS011;34689;51.644;5.618;2022-12-20T07:30:16;1.40;;;0.90;;
48875;SDS011;34689;51.644;5.618;2022-12-20T07:32:43;1.65;;;0.98;;
48875;SDS011;34689;51.644;5.618;2022-12-20T07:35:12;0.90;;;0.50;;
48875;SDS011;34689;51.644;5.618;2022-12-20T07:37:39;0.88;;;0.68;;
48875;SDS011;34689;51.644;5.618;2022-12-20T07:40:05;2.25;;;0.45;;
48875;SDS011;34689;51.644;5.618;2022-12-20T07:42:32;2.58;;;1.45;;
48875;SDS011;34689;51.644;5.618;2022-12-20T07:44:57;1.23;;;0.60;;
48875;SDS011;34689;51.644;5.618;2022-12-20T07:47:23;3.80;;;1.00;;
48875;SDS011;34689;51.644;5.618;2022-12-20T07:49:49;1.45;;;0.52;;
48875;SDS011;34689;51.644;5.618;2022-12-20T07:52:14;1.50;;;0.70;;
48875;SDS011;34689;51.644;5.618;2022-12-20T07:54:43;1.52;;;0.50;;
48875;SDS011;34689;51.644;5.618;2022-12-20T07:57:17;0.82;;;0.40;;
48875;SDS011;34689;51.644;5.618;2022-12-20T07:59:52;0.50;;;0.40;;
48875;SDS011;34689;51.644;5.618;2022-12-20T08:02:29;3.10;;;0.80;;
48875;SDS011;34689;51.644;5.618;2022-12-20T08:05:05;1.10;;;0.60;;
48875;SDS011;34689;51.644;5.618;2022-12-20T08:07:33;0.95;;;0.60;;
48875;SDS011;34689;51.644;5.618;2022-12-20T08:10:02;0.77;;;0.50;;
48875;SDS011;34689;51.644;5.618;2022-12-20T08:12:29;2.30;;;0.55;;
48875;SDS011;34689;51.644;5.618;2022-12-20T08:14:56;2.05;;;0.55;;
48875;SDS011;34689;51.644;5.618;2022-12-20T08:17:22;0.30;;;0.30;;
48875;SDS011;34689;51.644;5.618;2022-12-20T08:19:48;3.97;;;0.90;;
48875;SDS011;34689;51.644;5.618;2022-12-20T08:22:16;2.22;;;0.90;;
48875;SDS011;34689;51.644;5.618;2022-12-20T08:24:43;1.42;;;0.93;;
48875;SDS011;34689;51.644;5.618;2022-12-20T08:27:11;1.10;;;0.40;;
48875;SDS011;34689;51.644;5.618;2022-12-20T08:29:37;1.08;;;0.63;;
48875;SDS011;34689;51.644;5.618;2022-12-20T08:32:03;0.40;;;0.30;;
48875;SDS011;34689;51.644;5.618;2022-12-20T08:34:29;2.92;;;0.60;;
48875;SDS011;34689;51.644;5.618;2022-12-20T08:36:58;3.22;;;1.02;;
48875;SDS011;34689;51.644;5.618;2022-12-20T08:39:24;4.22;;;0.80;;
48875;SDS011;34689;51.644;5.618;2022-12-20T08:41:49;0.95;;;0.52;;
48875;SDS011;34689;51.644;5.618;2022-12-20T08:44:15;1.13;;;0.60;;
48875;SDS011;34689;51.644;5.618;2022-12-20T08:46:41;1.88;;;0.75;;
48875;SDS011;34689;51.644;5.618;2022-12-20T08:49:06;2.42;;;0.82;;
48875;SDS011;34689;51.644;5.618;2022-12-20T08:51:32;2.33;;;0.73;;
48875;SDS011;34689;51.644;5.618;2022-12-20T08:53:58;0.80;;;0.50;;
48875;SDS011;34689;51.644;5.618;2022-12-20T08:56:23;0.65;;;0.47;;
48875;SDS011;34689;51.644;5.618;2022-12-20T08:58:49;1.02;;;0.50;;
48875;SDS011;34689;51.644;5.618;2022-12-20T09:01:16;0.75;;;0.52;;
48875;SDS011;34689;51.644;5.618;2022-12-20T09:03:43;0.60;;;0.50;;
48875;SDS011;34689;51.644;5.618;2022-12-20T09:06:10;3.20;;;1.00;;
48875;SDS011;34689;51.644;5.618;2022-12-20T09:08:42;2.20;;;0.70;;
48875;SDS011;34689;51.644;5.618;2022-12-20T09:11:12;1.48;;;0.90;;
48875;SDS011;34689;51.644;5.618;2022-12-20T09:13:43;1.17;;;0.60;;
48875;SDS011;34689;51.644;5.618;2022-12-20T09:16:12;3.03;;;0.68;;
48875;SDS011;34689;51.644;5.618;2022-12-20T09:18:39;1.13;;;0.60;;
48875;SDS011;34689;51.644;5.618;2022-12-20T09:21:05;3.50;;;0.88;;
48875;SDS011;34689;51.644;5.618;2022-12-20T09:23:32;1.15;;;0.75;;
48875;SDS011;34689;51.644;5.618;2022-12-20T09:26:06;1.40;;;0.60;;
48875;SDS011;34689;51.644;5.618;2022-12-20T09:28:34;1.35;;;0.95;;
48875;SDS011;34689;51.644;5.618;2022-12-20T09:31:00;1.35;;;0.85;;
48875;SDS011;34689;51.644;5.618;2022-12-20T09:33:28;0.65;;;0.45;;
48875;SDS011;34689;51.644;5.618;2022-12-20T09:35:54;2.33;;;0.70;;
48875;SDS011;34689;51.644;5.618;2022-12-20T09:38:21;2.00;;;0.80;;
48875;SDS011;34689;51.644;5.618;2022-12-20T09:40:47;2.17;;;0.90;;
48875;SDS011;34689;51.644;5.618;2022-12-20T09:43:16;2.80;;;0.95;;
48875;SDS011;34689;51.644;5.618;2022-12-20T09:45:44;2.67;;;0.90;;
48875;SDS011;34689;51.644;5.618;2022-12-20T09:48:16;1.17;;;1.00;;
48875;SDS011;34689;51.644;5.618;2022-12-20T09:50:48;1.42;;;0.85;;
48875;SDS011;34689;51.644;5.618;2022-12-20T09:56:04;3.03;;;0.98;;
48875;SDS011;34689;51.644;5.618;2022-12-20T10:01:34;2.80;;;1.02;;
48875;SDS011;34689;51.644;5.618;2022-12-20T10:10:15;1.65;;;0.75;;
48875;SDS011;34689;51.644;5.618;2022-12-20T10:12:37;1.20;;;0.70;;
48875;SDS011;34689;51.644;5.618;2022-12-20T10:15:32;3.70;;;0.70;;
48875;SDS011;34689;51.644;5.618;2022-12-20T10:18:22;1.27;;;0.73;;
48875;SDS011;34689;51.644;5.618;2022-12-20T10:20:58;2.35;;;1.00;;
48875;SDS011;34689;51.644;5.618;2022-12-20T10:26:22;1.55;;;0.75;;
48875;SDS011;34689;51.644;5.618;2022-12-20T10:28:48;1.65;;;0.90;;
48875;SDS011;34689;51.644;5.618;2022-12-20T10:31:16;2.22;;;0.65;;
48875;SDS011;34689;51.644;5.618;2022-12-20T10:33:42;1.75;;;1.00;;
48875;SDS011;34689;51.644;5.618;2022-12-20T10:38:52;3.08;;;0.82;;
48875;SDS011;34689;51.644;5.618;2022-12-20T10:41:20;2.22;;;0.70;;
48875;SDS011;34689;51.644;5.618;2022-12-20T10:44:13;1.80;;;0.70;;
48875;SDS011;34689;51.644;5.618;2022-12-20T10:46:48;1.80;;;0.98;;
48875;SDS011;34689;51.644;5.618;2022-12-20T10:51:53;0.68;;;0.50;;
48875;SDS011;34689;51.644;5.618;2022-12-20T10:54:27;1.90;;;0.93;;
48875;SDS011;34689;51.644;5.618;2022-12-20T10:56:59;1.38;;;0.90;;
48875;SDS011;34689;51.644;5.618;2022-12-20T10:59:29;3.83;;;1.60;;
48875;SDS011;34689;51.644;5.618;2022-12-20T11:02:02;3.53;;;1.00;;
48875;SDS011;34689;51.644;5.618;2022-12-20T11:07:25;1.08;;;0.80;;
48875;SDS011;34689;51.644;5.618;2022-12-20T11:10:00;0.50;;;0.40;;
48875;SDS011;34689;51.644;5.618;2022-12-20T11:12:53;2.78;;;0.90;;
48875;SDS011;34689;51.644;5.618;2022-12-20T11:15:33;1.50;;;0.90;;
48875;SDS011;34689;51.644;5.618;2022-12-20T11:23:43;1.25;;;0.63;;
48875;SDS011;34689;51.644;5.618;2022-12-20T11:34:53;1.98;;;0.80;;
48875;SDS011;34689;51.644;5.618;2022-12-20T11:37:23;3.67;;;0.90;;
48875;SDS011;34689;51.644;5.618;2022-12-20T11:56:52;2.58;;;1.08;;
48875;SDS011;34689;51.644;5.618;2022-12-20T11:59:05;3.10;;;0.93;;
48875;SDS011;34689;51.644;5.618;2022-12-20T12:01:49;2.25;;;1.23;;
48875;SDS011;34689;51.644;5.618;2022-12-20T12:04:18;1.17;;;1.00;;
48875;SDS011;34689;51.644;5.618;2022-12-20T12:09:44;4.90;;;1.83;;
48875;SDS011;34689;51.644;5.618;2022-12-20T12:13:22;1.92;;;1.13;;
48875;SDS011;34689;51.644;5.618;2022-12-20T12:17:58;1.52;;;0.93;;
48875;SDS011;34689;51.644;5.618;2022-12-20T12:23:15;1.63;;;1.15;;
48875;SDS011;34689;51.644;5.618;2022-12-20T12:26:01;1.15;;;0.88;;
48875;SDS011;34689;51.644;5.618;2022-12-20T12:28:42;1.83;;;1.25;;
48875;SDS011;34689;51.644;5.618;2022-12-20T12:31:10;3.22;;;1.30;;
48875;SDS011;34689;51.644;5.618;2022-12-20T12:34:03;2.53;;;1.30;;
48875;SDS011;34689;51.644;5.618;2022-12-20T12:44:41;4.65;;;1.52;;
48875;SDS011;34689;51.644;5.618;2022-12-20T12:47:15;2.42;;;0.80;;
48875;SDS011;34689;51.644;5.618;2022-12-20T12:49:49;3.53;;;1.23;;
48875;SDS011;34689;51.644;5.618;2022-12-20T12:58:13;2.10;;;1.52;;
48875;SDS011;34689;51.644;5.618;2022-12-20T13:01:00;1.42;;;1.00;;
48875;SDS011;34689;51.644;5.618;2022-12-20T13:03:45;2.28;;;1.05;;
48875;SDS011;34689;51.644;5.618;2022-12-20T13:11:31;5.88;;;1.60;;
48875;SDS011;34689;51.644;5.618;2022-12-20T13:16:49;1.23;;;0.95;;
48875;SDS011;34689;51.644;5.618;2022-12-20T13:21:57;3.40;;;1.85;;
48875;SDS011;34689;51.644;5.618;2022-12-20T13:27:16;1.67;;;1.33;;
48875;SDS011;34689;51.644;5.618;2022-12-20T13:29:52;2.28;;;1.17;;
48875;SDS011;34689;51.644;5.618;2022-12-20T13:40:33;2.83;;;1.85;;
48875;SDS011;34689;51.644;5.618;2022-12-20T13:43:02;2.95;;;1.70;;
48875;SDS011;34689;51.644;5.618;2022-12-20T13:45:47;2.47;;;1.58;;
48875;SDS011;34689;51.644;5.618;2022-12-20T13:51:03;3.83;;;2.00;;
48875;SDS011;34689;51.644;5.618;2022-12-20T13:53:31;2.20;;;1.27;;
48875;SDS011;34689;51.644;5.618;2022-12-20T13:55:57;2.95;;;1.77;;
48875;SDS011;34689;51.644;5.618;2022-12-20T13:58:43;1.90;;;1.50;;
48875;SDS011;34689;51.644;5.618;2022-12-20T14:01:10;3.75;;;1.95;;
48875;SDS011;34689;51.644;5.618;2022-12-20T14:03:41;3.20;;;1.67;;
48875;SDS011;34689;51.644;5.618;2022-12-20T14:06:10;3.17;;;1.48;;
48875;SDS011;34689;51.644;5.618;2022-12-20T14:08:42;1.65;;;1.17;;
48875;SDS011;34689;51.644;5.618;2022-12-20T14:11:14;2.08;;;1.30;;
48875;SDS011;34689;51.644;5.618;2022-12-20T14:13:49;2.20;;;1.40;;
48875;SDS011;34689;51.644;5.618;2022-12-20T14:16:17;1.35;;;1.05;;
48875;SDS011;34689;51.644;5.618;2022-12-20T14:18:50;3.05;;;1.58;;
48875;SDS011;34689;51.644;5.618;2022-12-20T14:21:29;1.67;;;1.20;;
48875;SDS011;34689;51.644;5.618;2022-12-20T14:23:56;3.55;;;1.02;;
48875;SDS011;34689;51.644;5.618;2022-12-20T14:26:28;3.33;;;1.25;;
48875;SDS011;34689;51.644;5.618;2022-12-20T14:29:00;1.73;;;1.23;;
48875;SDS011;34689;51.644;5.618;2022-12-20T14:31:28;4.40;;;1.88;;
48875;SDS011;34689;51.644;5.618;2022-12-20T14:34:03;3.47;;;2.33;;
48875;SDS011;34689;51.644;5.618;2022-12-20T14:36:30;4.13;;;2.00;;
48875;SDS011;34689;51.644;5.618;2022-12-20T14:38:56;2.20;;;1.92;;
48875;SDS011;34689;51.644;5.618;2022-12-20T14:46:32;2.83;;;2.10;;
48875;SDS011;34689;51.644;5.618;2022-12-20T14:51:40;2.58;;;1.30;;
48875;SDS011;34689;51.644;5.618;2022-12-20T14:54:05;2.30;;;1.48;;
48875;SDS011;34689;51.644;5.618;2022-12-20T14:56:36;2.92;;;1.33;;
48875;SDS011;34689;51.644;5.618;2022-12-20T14:59:04;2.20;;;1.65;;
48875;SDS011;34689;51.644;5.618;2022-12-20T15:01:37;2.05;;;1.38;;
48875;SDS011;34689;51.644;5.618;2022-12-20T15:04:17;3.65;;;1.95;;
48875;SDS011;34689;51.644;5.618;2022-12-20T15:07:01;4.25;;;1.55;;
48875;SDS011;34689;51.644;5.618;2022-12-20T15:09:27;2.60;;;1.60;;
48875;SDS011;34689;51.644;5.618;2022-12-20T15:11:53;2.05;;;1.35;;
48875;SDS011;34689;51.644;5.618;2022-12-20T15:16:49;1.60;;;1.50;;
48875;SDS011;34689;51.644;5.618;2022-12-20T15:19:17;1.92;;;1.25;;
48875;SDS011;34689;51.644;5.618;2022-12-20T15:21:43;1.80;;;1.33;;
48875;SDS011;34689;51.644;5.618;2022-12-20T15:24:16;5.07;;;2.47;;
48875;SDS011;34689;51.644;5.618;2022-12-20T15:26:45;2.17;;;1.48;;
48875;SDS011;34689;51.644;5.618;2022-12-20T15:29:30;2.72;;;1.90;;
48875;SDS011;34689;51.644;5.618;2022-12-20T15:32:06;3.05;;;1.42;;
48875;SDS011;34689;51.644;5.618;2022-12-20T15:34:45;3.72;;;2.17;;
48875;SDS011;34689;51.644;5.618;2022-12-20T15:37:14;2.20;;;1.52;;
48875;SDS011;34689;51.644;5.618;2022-12-20T15:39:40;1.67;;;1.58;;
48875;SDS011;34689;51.644;5.618;2022-12-20T15:42:06;2.60;;;1.83;;
48875;SDS011;34689;51.644;5.618;2022-12-20T15:44:39;4.28;;;2.60;;
48875;SDS011;34689;51.644;5.618;2022-12-20T15:47:08;4.18;;;2.28;;
48875;SDS011;34689;51.644;5.618;2022-12-20T15:49:37;2.33;;;1.47;;
48875;SDS011;34689;51.644;5.618;2022-12-20T15:52:03;1.67;;;1.33;;
48875;SDS011;34689;51.644;5.618;2022-12-20T15:54:30;2.13;;;1.52;;
48875;SDS011;34689;51.644;5.618;2022-12-20T15:57:01;2.50;;;1.88;;
48875;SDS011;34689;51.644;5.618;2022-12-20T15:59:31;2.65;;;1.70;;
48875;SDS011;34689;51.644;5.618;2022-12-20T16:01:57;2.17;;;1.70;;
48875;SDS011;34689;51.644;5.618;2022-12-20T16:04:23;3.03;;;2.30;;
48875;SDS011;34689;51.644;5.618;2022-12-20T16:06:49;6.75;;;3.00;;
48875;SDS011;34689;51.644;5.618;2022-12-20T16:09:17;2.97;;;1.77;;
48875;SDS011;34689;51.644;5.618;2022-12-20T16:11:44;4.28;;;3.10;;
48875;SDS011;34689;51.644;5.618;2022-12-20T16:14:19;3.55;;;2.30;;
48875;SDS011;34689;51.644;5.618;2022-12-20T16:16:45;2.85;;;2.13;;
48875;SDS011;34689;51.644;5.618;2022-12-20T16:19:13;2.25;;;1.98;;
48875;SDS011;34689;51.644;5.618;2022-12-20T16:21:41;3.28;;;2.20;;
48875;SDS011;34689;51.644;5.618;2022-12-20T16:24:15;2.75;;;1.60;;
48875;SDS011;34689;51.644;5.618;2022-12-20T16:26:42;3.42;;;2.50;;
48875;SDS011;34689;51.644;5.618;2022-12-20T16:29:08;4.22;;;2.50;;
48875;SDS011;34689;51.644;5.618;2022-12-20T16:31:35;6.00;;;2.70;;
48875;SDS011;34689;51.644;5.618;2022-12-20T16:34:05;5.78;;;3.30;;
48875;SDS011;34689;51.644;5.618;2022-12-20T16:36:36;3.60;;;2.55;;
48875;SDS011;34689;51.644;5.618;2022-12-20T16:39:02;4.53;;;2.83;;
48875;SDS011;34689;51.644;5.618;2022-12-20T16:41:29;5.05;;;3.28;;
48875;SDS011;34689;51.644;5.618;2022-12-20T16:43:57;4.20;;;2.75;;
48875;SDS011;34689;51.644;5.618;2022-12-20T16:46:26;4.07;;;2.70;;
48875;SDS011;34689;51.644;5.618;2022-12-20T16:48:54;4.28;;;2.58;;
48875;SDS011;34689;51.644;5.618;2022-12-20T16:51:25;5.85;;;2.95;;
48875;SDS011;34689;51.644;5.618;2022-12-20T16:53:56;6.10;;;3.35;;
48875;SDS011;34689;51.644;5.618;2022-12-20T16:56:36;4.45;;;2.58;;
48875;SDS011;34689;51.644;5.618;2022-12-20T16:59:01;3.85;;;2.40;;
48875;SDS011;34689;51.644;5.618;2022-12-20T17:01:29;5.65;;;2.58;;
48875;SDS011;34689;51.644;5.618;2022-12-20T17:03:57;2.92;;;2.35;;
48875;SDS011;34689;51.644;5.618;2022-12-20T17:06:22;3.08;;;2.30;;